Terminal Aerodrome Forecast
Issued by NWS

Home | Current Version | Previous Version | Text Only | Print | Product List | Glossary On
Versions: 1 2 3 4 5 6 7 8 9 10 11 12 13 14 15 16 17 18
861
FTUS44 KTSA 300823 AAB
TAFRVS
TAF AMD
KRVS 300823Z 3008/3106 24011KT P6SM OVC025
     FM301200 27013G21KT P6SM OVC025
     FM302100 29015G23KT P6SM OVC050=

USA.gov is the U.S. government's official web portal to all federal, state and local government web resources and services.